Terminal Aerodrome Forecast
Issued by NWS Jackson, KY

Home | Current Version | Previous Version | Text Only | Print | Product List | Glossary On
Versions: 1 2 3 4 5 6 7 8 9 10 11 12 13 14 15 16 17 18 19 20 21
000
FTUS43 KJKL 220520
TAFJKL
TAF
KJKL 220520Z 2206/2306 24003KT P6SM -SHRA OVC050
     FM220800 00000KT P6SM -SHRA OVC030
     FM221500 14003KT P6SM VCSH OVC020
     FM221900 18004KT P6SM OVC040=

USA.gov is the U.S. government's official web portal to all federal, state and local government web resources and services.